sensor_id;sensor_type;location;lat;lon;timestamp;pressure;altitude;pressure_sealevel;temperature;humidity
78855;BME280;68206;59.956;30.234;2023-11-21T00:01:23;101818.78;;;-2.03;65.55
78855;BME280;68206;59.956;30.234;2023-11-21T00:03:53;101820.41;;;-2.05;65.56
78855;BME280;68206;59.956;30.234;2023-11-21T00:06:22;101823.81;;;-2.07;65.55
78855;BME280;68206;59.956;30.234;2023-11-21T00:08:50;101821.13;;;-2.09;65.60
78855;BME280;68206;59.956;30.234;2023-11-21T00:11:19;101820.97;;;-2.13;65.20
78855;BME280;68206;59.956;30.234;2023-11-21T00:13:47;101813.19;;;-2.12;65.70
78855;BME280;68206;59.956;30.234;2023-11-21T00:16:17;101814.16;;;-2.10;65.74
78855;BME280;68206;59.956;30.234;2023-11-21T00:18:45;101812.50;;;-2.08;65.33
78855;BME280;68206;59.956;30.234;2023-11-21T00:21:15;101819.66;;;-2.02;65.50
78855;BME280;68206;59.956;30.234;2023-11-21T00:23:44;101819.53;;;-2.05;65.47
78855;BME280;68206;59.956;30.234;2023-11-21T00:26:12;101822.03;;;-2.08;65.34
78855;BME280;68206;59.956;30.234;2023-11-21T00:28:45;101820.63;;;-2.00;64.90
78855;BME280;68206;59.956;30.234;2023-11-21T00:31:14;101819.28;;;-2.11;65.50
78855;BME280;68206;59.956;30.234;2023-11-21T00:33:42;101825.97;;;-2.18;64.96
78855;BME280;68206;59.956;30.234;2023-11-21T00:36:12;101820.81;;;-2.16;64.97
78855;BME280;68206;59.956;30.234;2023-11-21T00:38:41;101820.75;;;-2.18;65.07
78855;BME280;68206;59.956;30.234;2023-11-21T00:41:10;101829.81;;;-2.08;64.75
78855;BME280;68206;59.956;30.234;2023-11-21T00:43:38;101828.78;;;-2.12;64.66
78855;BME280;68206;59.956;30.234;2023-11-21T00:46:06;101832.69;;;-2.23;64.97
78855;BME280;68206;59.956;30.234;2023-11-21T00:48:35;101837.72;;;-2.27;64.98
78855;BME280;68206;59.956;30.234;2023-11-21T00:51:04;101837.00;;;-2.23;65.00
78855;BME280;68206;59.956;30.234;2023-11-21T00:53:33;101841.38;;;-2.22;64.72
78855;BME280;68206;59.956;30.234;2023-11-21T00:56:03;101846.75;;;-2.18;64.66
78855;BME280;68206;59.956;30.234;2023-11-21T00:58:31;101851.00;;;-2.20;64.05
78855;BME280;68206;59.956;30.234;2023-11-21T01:00:58;101853.63;;;-2.20;64.25
78855;BME280;68206;59.956;30.234;2023-11-21T01:03:26;101855.84;;;-2.29;64.48
78855;BME280;68206;59.956;30.234;2023-11-21T01:05:55;101847.69;;;-2.38;64.87
78855;BME280;68206;59.956;30.234;2023-11-21T01:08:23;101852.66;;;-2.42;64.84
78855;BME280;68206;59.956;30.234;2023-11-21T01:10:52;101851.91;;;-2.40;65.07
78855;BME280;68206;59.956;30.234;2023-11-21T01:13:22;101844.22;;;-2.37;65.06
78855;BME280;68206;59.956;30.234;2023-11-21T01:15:50;101851.22;;;-2.36;64.97
78855;BME280;68206;59.956;30.234;2023-11-21T01:18:19;101860.53;;;-2.41;65.19
78855;BME280;68206;59.956;30.234;2023-11-21T01:20:48;101861.41;;;-2.40;64.94
78855;BME280;68206;59.956;30.234;2023-11-21T01:23:16;101865.00;;;-2.37;65.75
78855;BME280;68206;59.956;30.234;2023-11-21T01:25:44;101864.44;;;-2.30;65.23
78855;BME280;68206;59.956;30.234;2023-11-21T01:28:12;101863.69;;;-2.27;64.93
78855;BME280;68206;59.956;30.234;2023-11-21T01:30:42;101868.31;;;-2.20;64.35
78855;BME280;68206;59.956;30.234;2023-11-21T01:33:12;101862.31;;;-2.19;64.69
78855;BME280;68206;59.956;30.234;2023-11-21T01:35:43;101866.84;;;-2.14;64.49
78855;BME280;68206;59.956;30.234;2023-11-21T01:38:11;101859.16;;;-2.11;64.43
78855;BME280;68206;59.956;30.234;2023-11-21T01:40:41;101853.91;;;-2.12;64.28
78855;BME280;68206;59.956;30.234;2023-11-21T01:43:09;101849.59;;;-2.12;64.37
78855;BME280;68206;59.956;30.234;2023-11-21T01:45:37;101861.75;;;-2.11;64.81
78855;BME280;68206;59.956;30.234;2023-11-21T01:48:08;101857.59;;;-2.07;64.97
78855;BME280;68206;59.956;30.234;2023-11-21T01:50:37;101862.00;;;-2.05;64.78
78855;BME280;68206;59.956;30.234;2023-11-21T01:53:06;101861.91;;;-2.08;64.33
78855;BME280;68206;59.956;30.234;2023-11-21T01:55:36;101857.38;;;-2.12;64.46
78855;BME280;68206;59.956;30.234;2023-11-21T01:58:05;101862.72;;;-2.09;64.87
78855;BME280;68206;59.956;30.234;2023-11-21T02:00:35;101857.59;;;-2.07;64.94
78855;BME280;68206;59.956;30.234;2023-11-21T02:03:06;101864.50;;;-2.08;64.79
78855;BME280;68206;59.956;30.234;2023-11-21T02:05:36;101864.59;;;-2.05;65.12
78855;BME280;68206;59.956;30.234;2023-11-21T02:08:04;101863.78;;;-2.04;65.12
78855;BME280;68206;59.956;30.234;2023-11-21T02:10:33;101870.94;;;-1.98;64.89
78855;BME280;68206;59.956;30.234;2023-11-21T02:13:02;101858.09;;;-1.93;64.60
78855;BME280;68206;59.956;30.234;2023-11-21T02:15:31;101872.06;;;-1.91;64.74
78855;BME280;68206;59.956;30.234;2023-11-21T02:17:59;101875.47;;;-1.92;64.66
78855;BME280;68206;59.956;30.234;2023-11-21T02:20:32;101877.09;;;-1.96;64.75
78855;BME280;68206;59.956;30.234;2023-11-21T02:23:04;101887.56;;;-1.94;65.23
78855;BME280;68206;59.956;30.234;2023-11-21T02:25:33;101886.78;;;-1.92;64.42
78855;BME280;68206;59.956;30.234;2023-11-21T02:28:04;101877.44;;;-1.87;64.43
78855;BME280;68206;59.956;30.234;2023-11-21T02:30:34;101883.59;;;-1.85;64.10
78855;BME280;68206;59.956;30.234;2023-11-21T02:33:04;101887.91;;;-1.85;64.24
78855;BME280;68206;59.956;30.234;2023-11-21T02:35:32;101884.31;;;-1.89;64.28
78855;BME280;68206;59.956;30.234;2023-11-21T02:38:02;101885.19;;;-1.88;64.45
78855;BME280;68206;59.956;30.234;2023-11-21T02:40:31;101898.22;;;-1.87;64.47
78855;BME280;68206;59.956;30.234;2023-11-21T02:43:00;101889.53;;;-1.87;64.73
78855;BME280;68206;59.956;30.234;2023-11-21T02:45:28;101891.38;;;-1.85;64.45
78855;BME280;68206;59.956;30.234;2023-11-21T02:47:57;101886.94;;;-1.87;64.87
78855;BME280;68206;59.956;30.234;2023-11-21T02:50:26;101873.13;;;-1.86;64.66
78855;BME280;68206;59.956;30.234;2023-11-21T02:52:54;101880.16;;;-1.84;64.70
78855;BME280;68206;59.956;30.234;2023-11-21T02:55:25;101891.38;;;-1.85;64.62
78855;BME280;68206;59.956;30.234;2023-11-21T02:57:55;101890.44;;;-1.87;64.58
78855;BME280;68206;59.956;30.234;2023-11-21T03:00:24;101894.50;;;-1.93;64.76
78855;BME280;68206;59.956;30.234;2023-11-21T03:02:56;101895.34;;;-1.94;64.40
78855;BME280;68206;59.956;30.234;2023-11-21T03:05:25;101901.22;;;-1.98;64.46
78855;BME280;68206;59.956;30.234;2023-11-21T03:07:56;101910.81;;;-1.97;64.69
78855;BME280;68206;59.956;30.234;2023-11-21T03:10:25;101912.41;;;-2.01;64.69
78855;BME280;68206;59.956;30.234;2023-11-21T03:12:56;101920.06;;;-2.04;65.03
78855;BME280;68206;59.956;30.234;2023-11-21T03:15:25;101907.00;;;-2.06;65.36
78855;BME280;68206;59.956;30.234;2023-11-21T03:17:53;101907.16;;;-2.03;65.30
78855;BME280;68206;59.956;30.234;2023-11-21T03:20:23;101906.25;;;-2.03;65.24
78855;BME280;68206;59.956;30.234;2023-11-21T03:22:52;101911.63;;;-1.98;65.20
78855;BME280;68206;59.956;30.234;2023-11-21T03:25:21;101916.97;;;-1.95;65.23
78855;BME280;68206;59.956;30.234;2023-11-21T03:27:51;101919.75;;;-1.91;64.62
78855;BME280;68206;59.956;30.234;2023-11-21T03:30:22;101918.91;;;-1.90;64.57
78855;BME280;68206;59.956;30.234;2023-11-21T03:32:50;101922.47;;;-1.88;64.39
78855;BME280;68206;59.956;30.234;2023-11-21T03:35:19;101919.00;;;-1.88;64.48
78855;BME280;68206;59.956;30.234;2023-11-21T03:37:48;101920.13;;;-1.82;63.86
78855;BME280;68206;59.956;30.234;2023-11-21T03:40:16;101921.88;;;-1.81;63.62
78855;BME280;68206;59.956;30.234;2023-11-21T03:42:45;101917.56;;;-1.80;62.94
78855;BME280;68206;59.956;30.234;2023-11-21T03:45:13;101914.03;;;-1.82;62.77
78855;BME280;68206;59.956;30.234;2023-11-21T03:48:18;101926.16;;;-1.83;62.86
78855;BME280;68206;59.956;30.234;2023-11-21T03:52:18;101939.81;;;-1.87;62.25
78855;BME280;68206;59.956;30.234;2023-11-21T03:54:46;101939.78;;;-1.88;62.46
78855;BME280;68206;59.956;30.234;2023-11-21T03:57:14;101935.28;;;-1.92;62.27
78855;BME280;68206;59.956;30.234;2023-11-21T03:59:43;101938.69;;;-1.93;62.52
78855;BME280;68206;59.956;30.234;2023-11-21T04:02:11;101938.94;;;-1.87;62.76
78855;BME280;68206;59.956;30.234;2023-11-21T04:04:41;101931.19;;;-1.86;62.46
78855;BME280;68206;59.956;30.234;2023-11-21T04:07:10;101930.38;;;-1.85;62.31
78855;BME280;68206;59.956;30.234;2023-11-21T04:09:40;101937.28;;;-1.85;62.91
78855;BME280;68206;59.956;30.234;2023-11-21T04:12:09;101940.84;;;-1.83;62.60
78855;BME280;68206;59.956;30.234;2023-11-21T04:14:38;101941.66;;;-1.84;62.23
78855;BME280;68206;59.956;30.234;2023-11-21T04:17:06;101945.22;;;-1.82;61.75
78855;BME280;68206;59.956;30.234;2023-11-21T04:19:34;101942.75;;;-1.79;61.78
78855;BME280;68206;59.956;30.234;2023-11-21T04:22:04;101944.53;;;-1.78;61.59
78855;BME280;68206;59.956;30.234;2023-11-21T04:24:32;101952.16;;;-1.83;61.93
78855;BME280;68206;59.956;30.234;2023-11-21T04:27:01;101941.53;;;-1.87;62.24
78855;BME280;68206;59.956;30.234;2023-11-21T04:29:29;101961.66;;;-1.83;62.29
78855;BME280;68206;59.956;30.234;2023-11-21T04:32:02;101976.38;;;-1.84;62.15
78855;BME280;68206;59.956;30.234;2023-11-21T04:34:33;101982.47;;;-1.83;62.26
78855;BME280;68206;59.956;30.234;2023-11-21T04:37:05;101976.28;;;-1.85;62.30
78855;BME280;68206;59.956;30.234;2023-11-21T04:39:33;101980.81;;;-1.81;62.10
78855;BME280;68206;59.956;30.234;2023-11-21T04:42:02;101986.00;;;-1.81;61.54
78855;BME280;68206;59.956;30.234;2023-11-21T04:44:31;101996.28;;;-1.84;61.38
78855;BME280;68206;59.956;30.234;2023-11-21T04:47:00;101998.06;;;-1.83;59.22
78855;BME280;68206;59.956;30.234;2023-11-21T04:49:32;102009.03;;;-1.90;58.14
78855;BME280;68206;59.956;30.234;2023-11-21T04:52:01;102002.50;;;-2.01;58.90
78855;BME280;68206;59.956;30.234;2023-11-21T04:54:31;101997.88;;;-2.09;59.33
78855;BME280;68206;59.956;30.234;2023-11-21T04:57:00;102002.63;;;-2.19;60.06
78855;BME280;68206;59.956;30.234;2023-11-21T04:59:28;102006.72;;;-2.24;60.54
78855;BME280;68206;59.956;30.234;2023-11-21T05:01:56;102002.03;;;-2.33;60.71
78855;BME280;68206;59.956;30.234;2023-11-21T05:04:27;102012.28;;;-2.36;60.95
78855;BME280;68206;59.956;30.234;2023-11-21T05:06:55;102022.28;;;-2.45;61.17
78855;BME280;68206;59.956;30.234;2023-11-21T05:09:23;102023.84;;;-2.49;61.18
78855;BME280;68206;59.956;30.234;2023-11-21T05:11:54;102015.72;;;-2.56;61.71
78855;BME280;68206;59.956;30.234;2023-11-21T05:14:22;102008.34;;;-2.66;62.03
78855;BME280;68206;59.956;30.234;2023-11-21T05:16:50;102007.09;;;-2.74;61.92
78855;BME280;68206;59.956;30.234;2023-11-21T05:19:19;102004.38;;;-2.77;62.45
78855;BME280;68206;59.956;30.234;2023-11-21T05:21:48;102005.75;;;-2.86;62.36
78855;BME280;68206;59.956;30.234;2023-11-21T05:24:16;102011.81;;;-2.85;62.30
78855;BME280;68206;59.956;30.234;2023-11-21T05:26:44;102009.03;;;-2.90;62.47
78855;BME280;68206;59.956;30.234;2023-11-21T05:29:14;102019.41;;;-2.90;63.00
78855;BME280;68206;59.956;30.234;2023-11-21T05:31:43;102016.53;;;-2.96;63.07
78855;BME280;68206;59.956;30.234;2023-11-21T05:34:12;102033.06;;;-2.94;62.87
78855;BME280;68206;59.956;30.234;2023-11-21T05:36:44;102034.50;;;-3.00;63.62
78855;BME280;68206;59.956;30.234;2023-11-21T05:39:14;102030.47;;;-2.94;62.99
78855;BME280;68206;59.956;30.234;2023-11-21T05:41:44;102033.06;;;-2.94;63.20
78855;BME280;68206;59.956;30.234;2023-11-21T05:44:17;102035.44;;;-2.98;63.26
78855;BME280;68206;59.956;30.234;2023-11-21T05:46:46;102040.88;;;-2.94;62.80
78855;BME280;68206;59.956;30.234;2023-11-21T05:49:14;102049.59;;;-2.92;63.23
78855;BME280;68206;59.956;30.234;2023-11-21T05:51:43;102054.69;;;-2.93;63.31
78855;BME280;68206;59.956;30.234;2023-11-21T05:54:12;102047.06;;;-2.90;63.38
78855;BME280;68206;59.956;30.234;2023-11-21T05:56:40;102053.84;;;-2.94;63.52
78855;BME280;68206;59.956;30.234;2023-11-21T05:59:09;102053.00;;;-2.93;63.92
78855;BME280;68206;59.956;30.234;2023-11-21T06:01:38;102063.44;;;-2.91;62.83
78855;BME280;68206;59.956;30.234;2023-11-21T06:04:07;102065.06;;;-2.93;63.23
78855;BME280;68206;59.956;30.234;2023-11-21T06:06:36;102071.16;;;-2.93;63.25
78855;BME280;68206;59.956;30.234;2023-11-21T06:09:05;102070.22;;;-2.95;62.82
78855;BME280;68206;59.956;30.234;2023-11-21T06:11:36;102071.16;;;-2.93;63.32
78855;BME280;68206;59.956;30.234;2023-11-21T06:14:04;102081.53;;;-2.93;63.35
78855;BME280;68206;59.956;30.234;2023-11-21T06:16:35;102084.09;;;-2.94;63.33
78855;BME280;68206;59.956;30.234;2023-11-21T06:19:05;102089.34;;;-2.93;63.58
78855;BME280;68206;59.956;30.234;2023-11-21T06:21:33;102104.97;;;-2.91;63.33
78855;BME280;68206;59.956;30.234;2023-11-21T06:24:02;102095.38;;;-2.94;62.94
78855;BME280;68206;59.956;30.234;2023-11-21T06:26:31;102102.84;;;-2.82;63.33
78855;BME280;68206;59.956;30.234;2023-11-21T06:29:00;102106.94;;;-2.68;63.21
78855;BME280;68206;59.956;30.234;2023-11-21T06:31:30;102114.19;;;-2.61;62.24
78855;BME280;68206;59.956;30.234;2023-11-21T06:34:00;102118.38;;;-2.45;61.79
78855;BME280;68206;59.956;30.234;2023-11-21T06:36:29;102115.03;;;-2.42;61.38
78855;BME280;68206;59.956;30.234;2023-11-21T06:38:58;102109.81;;;-2.23;60.15
78855;BME280;68206;59.956;30.234;2023-11-21T06:41:26;102116.34;;;-2.14;58.90
78855;BME280;68206;59.956;30.234;2023-11-21T06:43:54;102116.09;;;-2.18;58.61
78855;BME280;68206;59.956;30.234;2023-11-21T06:46:26;102117.78;;;-2.20;59.17
78855;BME280;68206;59.956;30.234;2023-11-21T06:48:55;102123.78;;;-2.21;58.45
78855;BME280;68206;59.956;30.234;2023-11-21T06:51:23;102129.59;;;-2.27;57.77
78855;BME280;68206;59.956;30.234;2023-11-21T06:53:53;102135.47;;;-2.31;56.23
78855;BME280;68206;59.956;30.234;2023-11-21T06:56:21;102141.06;;;-2.41;55.06
78855;BME280;68206;59.956;30.234;2023-11-21T06:58:50;102141.28;;;-2.36;55.54
78855;BME280;68206;59.956;30.234;2023-11-21T07:01:21;102139.66;;;-2.34;55.76
78855;BME280;68206;59.956;30.234;2023-11-21T07:03:49;102146.44;;;-2.38;55.07
78855;BME280;68206;59.956;30.234;2023-11-21T07:06:18;102148.88;;;-2.41;55.05
78855;BME280;68206;59.956;30.234;2023-11-21T07:08:46;102145.03;;;-2.49;55.90
78855;BME280;68206;59.956;30.234;2023-11-21T07:11:16;102147.34;;;-2.55;55.98
78855;BME280;68206;59.956;30.234;2023-11-21T07:13:44;102149.53;;;-2.64;56.20
78855;BME280;68206;59.956;30.234;2023-11-21T07:16:12;102151.22;;;-2.65;55.99
78855;BME280;68206;59.956;30.234;2023-11-21T07:18:42;102153.81;;;-2.65;56.37
78855;BME280;68206;59.956;30.234;2023-11-21T07:21:10;102150.25;;;-2.67;56.30
78855;BME280;68206;59.956;30.234;2023-11-21T07:23:39;102156.50;;;-2.63;56.57
78855;BME280;68206;59.956;30.234;2023-11-21T07:26:08;102154.13;;;-2.59;56.10
78855;BME280;68206;59.956;30.234;2023-11-21T07:28:39;102155.13;;;-2.55;56.32
78855;BME280;68206;59.956;30.234;2023-11-21T07:31:07;102161.97;;;-2.57;55.24
78855;BME280;68206;59.956;30.234;2023-11-21T07:33:37;102166.50;;;-2.53;54.58
78855;BME280;68206;59.956;30.234;2023-11-21T07:36:06;102170.78;;;-2.54;54.81
78855;BME280;68206;59.956;30.234;2023-11-21T07:38:35;102159.38;;;-2.57;54.96
78855;BME280;68206;59.956;30.234;2023-11-21T07:41:03;102168.19;;;-2.54;55.07
78855;BME280;68206;59.956;30.234;2023-11-21T07:43:46;102167.38;;;-2.53;55.54
78855;BME280;68206;59.956;30.234;2023-11-21T07:46:15;102170.94;;;-2.51;55.23
78855;BME280;68206;59.956;30.234;2023-11-21T07:48:43;102177.25;;;-2.46;55.11
78855;BME280;68206;59.956;30.234;2023-11-21T07:51:13;102182.63;;;-2.41;55.13
78855;BME280;68206;59.956;30.234;2023-11-21T07:53:41;102176.63;;;-2.40;55.16
78855;BME280;68206;59.956;30.234;2023-11-21T07:56:09;102178.78;;;-2.31;55.05
78855;BME280;68206;59.956;30.234;2023-11-21T07:58:38;102164.94;;;-2.30;54.15
78855;BME280;68206;59.956;30.234;2023-11-21T08:01:08;102173.69;;;-2.28;53.77
78855;BME280;68206;59.956;30.234;2023-11-21T08:03:36;102176.66;;;-2.21;54.20
78855;BME280;68206;59.956;30.234;2023-11-21T08:06:05;102175.97;;;-2.17;54.18
78855;BME280;68206;59.956;30.234;2023-11-21T08:08:33;102183.00;;;-2.14;54.37
78855;BME280;68206;59.956;30.234;2023-11-21T08:11:02;102170.38;;;-2.07;53.54
78855;BME280;68206;59.956;30.234;2023-11-21T08:13:31;102178.28;;;-2.04;53.50
78855;BME280;68206;59.956;30.234;2023-11-21T08:15:59;102166.09;;;-2.05;53.06
78855;BME280;68206;59.956;30.234;2023-11-21T08:18:33;102172.06;;;-2.07;53.48
78855;BME280;68206;59.956;30.234;2023-11-21T08:21:02;102173.78;;;-2.08;53.33
78855;BME280;68206;59.956;30.234;2023-11-21T08:23:32;102174.94;;;-2.01;54.32
78855;BME280;68206;59.956;30.234;2023-11-21T08:26:01;102172.13;;;-2.06;54.86
78855;BME280;68206;59.956;30.234;2023-11-21T08:28:32;102173.00;;;-2.05;55.78
78855;BME280;68206;59.956;30.234;2023-11-21T08:31:01;102171.31;;;-2.05;56.42
78855;BME280;68206;59.956;30.234;2023-11-21T08:33:29;102173.81;;;-2.06;56.02
78855;BME280;68206;59.956;30.234;2023-11-21T08:35:59;102180.78;;;-2.07;56.15
78855;BME280;68206;59.956;30.234;2023-11-21T08:38:28;102178.22;;;-2.05;55.95
78855;BME280;68206;59.956;30.234;2023-11-21T08:40:56;102175.56;;;-2.07;55.83
78855;BME280;68206;59.956;30.234;2023-11-21T08:43:25;102177.19;;;-2.09;55.91
78855;BME280;68206;59.956;30.234;2023-11-21T08:45:54;102175.56;;;-2.07;56.10
78855;BME280;68206;59.956;30.234;2023-11-21T08:48:23;102183.13;;;-2.11;56.45
78855;BME280;68206;59.956;30.234;2023-11-21T08:50:51;102184.22;;;-2.06;56.74
78855;BME280;68206;59.956;30.234;2023-11-21T08:53:21;102188.00;;;-1.99;56.44
78855;BME280;68206;59.956;30.234;2023-11-21T08:55:49;102179.44;;;-1.97;56.39
78855;BME280;68206;59.956;30.234;2023-11-21T08:58:18;102180.19;;;-1.99;56.46
78855;BME280;68206;59.956;30.234;2023-11-21T09:00:46;102180.41;;;-1.95;56.46
78855;BME280;68206;59.956;30.234;2023-11-21T09:03:14;102173.63;;;-1.91;56.61
78855;BME280;68206;59.956;30.234;2023-11-21T09:05:43;102183.41;;;-1.86;56.53
78855;BME280;68206;59.956;30.234;2023-11-21T09:08:11;102186.00;;;-1.86;56.33
78855;BME280;68206;59.956;30.234;2023-11-21T09:10:41;102188.41;;;-1.90;57.29
78855;BME280;68206;59.956;30.234;2023-11-21T09:13:12;102189.69;;;-1.81;56.71
78855;BME280;68206;59.956;30.234;2023-11-21T09:15:40;102186.09;;;-1.84;57.22
78855;BME280;68206;59.956;30.234;2023-11-21T09:18:09;102179.63;;;-1.73;56.84
78855;BME280;68206;59.956;30.234;2023-11-21T09:20:37;102192.34;;;-1.60;56.59
78855;BME280;68206;59.956;30.234;2023-11-21T09:23:05;102193.03;;;-1.64;56.72
78855;BME280;68206;59.956;30.234;2023-11-21T09:25:34;102184.09;;;-1.71;57.37
78855;BME280;68206;59.956;30.234;2023-11-21T09:28:05;102178.13;;;-1.68;58.05
78855;BME280;68206;59.956;30.234;2023-11-21T09:30:35;102184.81;;;-1.54;57.63
78855;BME280;68206;59.956;30.234;2023-11-21T09:33:04;102189.31;;;-1.50;57.49
78855;BME280;68206;59.956;30.234;2023-11-21T09:35:35;102179.19;;;-1.44;57.77
78855;BME280;68206;59.956;30.234;2023-11-21T09:38:05;102174.16;;;-1.39;57.55
78855;BME280;68206;59.956;30.234;2023-11-21T09:40:37;102170.94;;;-1.34;57.46
78855;BME280;68206;59.956;30.234;2023-11-21T09:43:12;102183.22;;;-1.30;57.31
78855;BME280;68206;59.956;30.234;2023-11-21T09:45:45;102173.63;;;-1.31;57.30
78855;BME280;68206;59.956;30.234;2023-11-21T09:48:16;102185.19;;;-1.24;57.27
78855;BME280;68206;59.956;30.234;2023-11-21T09:50:47;102180.88;;;-1.24;57.56
78855;BME280;68206;59.956;30.234;2023-11-21T09:53:20;102184.78;;;-1.14;57.67
78855;BME280;68206;59.956;30.234;2023-11-21T09:55:52;102189.59;;;-1.02;57.50
78855;BME280;68206;59.956;30.234;2023-11-21T09:58:22;102182.03;;;-0.96;57.81
78855;BME280;68206;59.956;30.234;2023-11-21T10:00:53;102179.75;;;-0.89;57.69
78855;BME280;68206;59.956;30.234;2023-11-21T10:03:23;102185.13;;;-0.84;57.68
78855;BME280;68206;59.956;30.234;2023-11-21T10:05:53;102185.78;;;-0.90;58.06
78855;BME280;68206;59.956;30.234;2023-11-21T10:08:27;102187.34;;;-0.93;58.08
78855;BME280;68206;59.956;30.234;2023-11-21T10:11:14;102194.34;;;-0.92;58.35
78855;BME280;68206;59.956;30.234;2023-11-21T10:13:45;102189.94;;;-0.93;58.48
78855;BME280;68206;59.956;30.234;2023-11-21T10:16:16;102186.41;;;-0.95;58.71
78855;BME280;68206;59.956;30.234;2023-11-21T10:18:52;102202.16;;;-0.92;58.76
78855;BME280;68206;59.956;30.234;2023-11-21T10:21:29;102201.72;;;-1.03;59.60
78855;BME280;68206;59.956;30.234;2023-11-21T10:23:58;102207.00;;;-1.01;59.80
78855;BME280;68206;59.956;30.234;2023-11-21T10:26:27;102204.13;;;-1.07;60.83
78855;BME280;68206;59.956;30.234;2023-11-21T10:29:14;102206.41;;;-1.15;61.81
78855;BME280;68206;59.956;30.234;2023-11-21T10:31:44;102212.34;;;-1.19;61.55
78855;BME280;68206;59.956;30.234;2023-11-21T10:34:14;102203.38;;;-1.26;62.50
78855;BME280;68206;59.956;30.234;2023-11-21T10:36:43;102208.50;;;-1.27;63.44
78855;BME280;68206;59.956;30.234;2023-11-21T10:39:14;102210.41;;;-1.23;62.59
78855;BME280;68206;59.956;30.234;2023-11-21T10:41:46;102203.88;;;-1.13;62.87
78855;BME280;68206;59.956;30.234;2023-11-21T10:44:17;102204.00;;;-1.10;62.59
78855;BME280;68206;59.956;30.234;2023-11-21T10:46:49;102208.78;;;-1.00;62.77
78855;BME280;68206;59.956;30.234;2023-11-21T10:49:19;102218.72;;;-0.90;62.05
78855;BME280;68206;59.956;30.234;2023-11-21T10:51:48;102217.19;;;-0.85;61.94
78855;BME280;68206;59.956;30.234;2023-11-21T10:54:22;102219.88;;;-0.84;61.99
78855;BME280;68206;59.956;30.234;2023-11-21T10:56:57;102219.94;;;-0.82;61.98
78855;BME280;68206;59.956;30.234;2023-11-21T10:59:29;102222.53;;;-0.82;62.52
78855;BME280;68206;59.956;30.234;2023-11-21T11:01:59;102220.81;;;-0.82;62.50
78855;BME280;68206;59.956;30.234;2023-11-21T11:04:31;102221.06;;;-0.75;62.44
78855;BME280;68206;59.956;30.234;2023-11-21T11:07:02;102222.72;;;-0.77;62.58
78855;BME280;68206;59.956;30.234;2023-11-21T11:09:32;102223.59;;;-0.77;62.42
78855;BME280;68206;59.956;30.234;2023-11-21T11:12:02;102227.34;;;-0.70;62.33
78855;BME280;68206;59.956;30.234;2023-11-21T11:14:33;102225.09;;;-0.61;62.15
78855;BME280;68206;59.956;30.234;2023-11-21T11:17:01;102220.91;;;-0.58;61.98
78855;BME280;68206;59.956;30.234;2023-11-21T11:19:33;102218.41;;;-0.55;62.01
78855;BME280;68206;59.956;30.234;2023-11-21T11:22:10;102218.66;;;-0.49;61.85
78855;BME280;68206;59.956;30.234;2023-11-21T11:25:01;102219.69;;;-0.45;61.53
78855;BME280;68206;59.956;30.234;2023-11-21T11:27:46;102218.06;;;-0.42;61.65
78855;BME280;68206;59.956;30.234;2023-11-21T11:30:31;102213.91;;;-0.36;61.21
78855;BME280;68206;59.956;30.234;2023-11-21T11:33:11;102214.63;;;-0.41;61.19
78855;BME280;68206;59.956;30.234;2023-11-21T11:35:50;102212.84;;;-0.42;61.48
78855;BME280;68206;59.956;30.234;2023-11-21T11:38:21;102207.81;;;-0.37;61.44
78855;BME280;68206;59.956;30.234;2023-11-21T11:40:53;102222.56;;;-0.37;61.58
78855;BME280;68206;59.956;30.234;2023-11-21T11:43:25;102217.47;;;-0.34;61.39
78855;BME280;68206;59.956;30.234;2023-11-21T11:45:57;102227.19;;;-0.30;61.28
78855;BME280;68206;59.956;30.234;2023-11-21T11:48:26;102221.03;;;-0.32;61.11
78855;BME280;68206;59.956;30.234;2023-11-21T11:51:02;102217.31;;;-0.39;60.78
78855;BME280;68206;59.956;30.234;2023-11-21T11:53:39;102217.97;;;-0.45;61.12
78855;BME280;68206;59.956;30.234;2023-11-21T11:56:25;102224.16;;;-0.41;61.41
78855;BME280;68206;59.956;30.234;2023-11-21T11:58:55;102229.50;;;-0.38;61.16
78855;BME280;68206;59.956;30.234;2023-11-21T12:01:26;102220.81;;;-0.38;61.27
78855;BME280;68206;59.956;30.234;2023-11-21T12:04:24;102235.72;;;-0.34;61.03
78855;BME280;68206;59.956;30.234;2023-11-21T12:07:01;102222.16;;;-0.48;61.60
78855;BME280;68206;59.956;30.234;2023-11-21T12:09:33;102230.03;;;-0.47;61.45
78855;BME280;68206;59.956;30.234;2023-11-21T12:12:03;102228.38;;;-0.45;61.71
78855;BME280;68206;59.956;30.234;2023-11-21T12:14:31;102230.22;;;-0.42;61.82
78855;BME280;68206;59.956;30.234;2023-11-21T12:17:01;102230.94;;;-0.46;62.27
78855;BME280;68206;59.956;30.234;2023-11-21T12:19:31;102235.25;;;-0.47;62.17
78855;BME280;68206;59.956;30.234;2023-11-21T12:22:00;102242.25;;;-0.46;62.52
78855;BME280;68206;59.956;30.234;2023-11-21T12:24:29;102250.06;;;-0.46;62.59
78855;BME280;68206;59.956;30.234;2023-11-21T12:26:57;102241.41;;;-0.45;62.80
78855;BME280;68206;59.956;30.234;2023-11-21T12:29:25;102251.13;;;-0.41;62.74
78855;BME280;68206;59.956;30.234;2023-11-21T12:31:56;102254.72;;;-0.37;62.80
78855;BME280;68206;59.956;30.234;2023-11-21T12:34:26;102260.97;;;-0.33;62.70
78855;BME280;68206;59.956;30.234;2023-11-21T12:36:55;102264.47;;;-0.33;62.56
78855;BME280;68206;59.956;30.234;2023-11-21T12:39:23;102259.00;;;-0.39;62.86
78855;BME280;68206;59.956;30.234;2023-11-21T12:41:52;102255.50;;;-0.39;62.76
78855;BME280;68206;59.956;30.234;2023-11-21T12:44:21;102259.94;;;-0.37;62.85
78855;BME280;68206;59.956;30.234;2023-11-21T12:46:51;102257.47;;;-0.34;62.93
78855;BME280;68206;59.956;30.234;2023-11-21T12:49:19;102258.34;;;-0.33;62.92
78855;BME280;68206;59.956;30.234;2023-11-21T12:51:50;102255.63;;;-0.36;63.37
78855;BME280;68206;59.956;30.234;2023-11-21T12:54:19;102263.34;;;-0.39;63.41
78855;BME280;68206;59.956;30.234;2023-11-21T12:56:49;102260.81;;;-0.36;63.16